Time;durP1;ratioP1;P1;durP2;ratioP2;P2;SDS_P1;SDS_P2;PMS_P1;PMS_P2;Temp;Humidity;BMP_temperature;BMP_pressure;BME280_temperature;BME280_humidity;BME280_pressure;Samples;Min_cycle;Max_cycle;Signal;HPM_P1;HPM_P2
2022/12/10 00:00:00;;;;;;;141.65;63.70;;;;;;;-1.68;100.00;66598.53;5005338;28;20135;-84
2022/12/10 00:02:26;;;;;;;147.80;63.70;;;;;;;-1.67;100.00;66602.28;5006652;28;20041;-84
2022/12/10 00:04:51;;;;;;;143.20;66.05;;;;;;;-1.73;100.00;66592.91;5003646;28;20042;-84
2022/12/10 00:07:16;;;;;;;147.38;68.93;;;;;;;-1.87;100.00;66579.81;5004918;28;20079;-84
2022/12/10 00:09:42;;;;;;;163.80;75.72;;;;;;;-1.74;100.00;66591.81;5004911;28;20038;-83
2022/12/10 00:12:07;;;;;;;166.80;73.40;;;;;;;;;;5006405;28;20042;-83
2022/12/10 00:14:32;;;;;;;172.43;78.55;;;;;;;-1.52;100.00;66612.78;5003561;28;20103;-84
2022/12/10 00:16:57;;;;;;;170.00;73.45;;;;;;;-1.39;100.00;66630.53;5002302;28;20131;-83
2022/12/10 00:19:23;;;;;;;172.00;77.03;;;;;;;-1.38;100.00;66631.66;4992863;28;20141;-84
2022/12/10 00:21:48;;;;;;;175.00;75.10;;;;;;;-1.31;100.00;66641.56;5003008;28;20061;-83
2022/12/10 00:24:14;;;;;;;174.52;80.60;;;;;;;-1.27;100.00;66635.63;5002985;28;20095;-84
2022/12/10 00:26:40;;;;;;;172.95;82.32;;;;;;;-1.22;100.00;66649.06;5001612;28;20072;-84
2022/12/10 00:29:07;;;;;;;171.07;75.70;;;;;;;-1.17;100.00;66651.50;5008028;28;20045;-84
2022/12/10 00:31:35;;;;;;;161.73;66.82;;;;;;;-1.12;100.00;66657.13;5004943;28;20080;-84
2022/12/10 00:34:04;;;;;;;168.80;70.57;;;;;;;-1.11;100.00;66657.69;5008450;28;20038;-84
2022/12/10 00:36:42;;;;;;;149.10;66.60;;;;;;;-1.26;100.00;66641.97;5001847;28;20038;-84
2022/12/10 00:39:08;;;;;;;171.57;73.30;;;;;;;-1.21;100.00;66647.00;5006998;28;20079;-84
2022/12/10 00:41:34;;;;;;;168.80;67.35;;;;;;;;;;5005253;28;20572;-83
2022/12/10 00:43:59;;;;;;;156.43;72.57;;;;;;;-1.23;100.00;66647.38;5007046;28;20033;-83
2022/12/10 00:46:25;;;;;;;159.70;68.40;;;;;;;-1.26;100.00;66636.75;5007524;28;20041;-84
2022/12/10 00:48:50;;;;;;;156.50;70.95;;;;;;;-1.33;100.00;66634.09;5007088;28;20037;-84
2022/12/10 00:51:19;;;;;;;153.43;63.13;;;;;;;-1.40;100.00;66626.25;5005703;28;20897;-84
2022/12/10 00:53:46;;;;;;;149.95;62.47;;;;;;;-1.46;100.00;66622.69;5004370;28;20068;-84
2022/12/10 00:56:13;;;;;;;169.13;80.15;;;;;;;-1.48;100.00;66617.81;5005094;28;20038;-84
2022/12/10 00:58:38;;;;;;;166.48;79.80;;;;;;;-1.58;100.00;66609.22;5006499;28;20038;-84
2022/12/10 01:01:07;;;;;;;157.93;67.82;;;;;;;-1.57;100.00;66607.16;5003033;28;20049;-84
2022/12/10 01:03:33;;;;;;;154.25;65.07;;;;;;;-1.56;100.00;66610.88;5003263;28;20038;-84
2022/12/10 01:06:08;;;;;;;149.70;64.28;;;;;;;-1.62;100.00;66607.31;5004362;28;20184;-84
2022/12/10 01:08:34;;;;;;;147.20;65.60;;;;;;;;;;5005850;28;20026;-86
2022/12/10 01:10:59;;;;;;;159.23;67.45;;;;;;;-1.60;100.00;66609.56;5015848;28;20050;-84
2022/12/10 01:13:25;;;;;;;158.45;70.47;;;;;;;-1.57;100.00;66609.78;5015363;28;20038;-86
2022/12/10 01:15:50;;;;;;;150.77;67.70;;;;;;;-1.61;100.00;66603.25;5014426;28;20134;-85
2022/12/10 01:18:15;;;;;;;144.57;61.47;;;;;;;-1.67;100.00;66599.66;5012163;28;20042;-86
2022/12/10 01:20:41;;;;;;;150.98;65.68;;;;;;;-1.74;100.00;66591.25;5009953;28;20049;-84
2022/12/10 01:23:06;;;;;;;147.60;67.13;;;;;;;-1.84;100.00;66581.16;5008013;28;20580;-85
2022/12/10 01:25:31;;;;;;;148.73;63.92;;;;;;;-1.94;100.00;66569.91;5008543;28;20049;-84
2022/12/10 01:27:57;;;;;;;152.60;67.18;;;;;;;-1.99;100.00;66566.34;5009382;28;20065;-84
2022/12/10 01:30:22;;;;;;;155.88;68.40;;;;;;;-2.00;100.00;66563.19;5005239;28;20054;-84
2022/12/10 01:32:47;;;;;;;150.15;70.13;;;;;;;-2.15;100.00;66543.75;5005463;28;20072;-84
2022/12/10 01:35:13;;;;;;;142.15;66.72;;;;;;;-2.22;100.00;66535.88;5006704;28;20107;-84
2022/12/10 01:37:39;;;;;;;147.02;68.82;;;;;;;-2.23;100.00;66534.78;5008017;28;20042;-84
2022/12/10 01:40:05;;;;;;;149.55;68.95;;;;;;;-2.24;100.00;66539.44;5002480;28;20101;-84
2022/12/10 01:42:30;;;;;;;139.65;65.30;;;;;;;-2.30;100.00;66530.09;5006094;28;20041;-84
2022/12/10 01:44:59;;;;;;;151.73;71.47;;;;;;;-2.28;100.00;66529.72;5003071;28;20485;-84
2022/12/10 01:47:24;;;;;;;147.77;66.47;;;;;;;-2.31;100.00;66528.94;5005368;28;20048;-83
2022/12/10 01:49:50;;;;;;;143.57;69.03;;;;;;;-2.35;100.00;66521.88;5002202;28;20398;-83
2022/12/10 01:52:16;;;;;;;152.10;68.90;;;;;;;-2.37;100.00;66520.19;5006193;28;20064;-83
2022/12/10 01:54:44;;;;;;;147.23;67.70;;;;;;;-2.40;100.00;66522.03;5004467;28;20582;-83
2022/12/10 01:57:14;;;;;;;162.30;69.28;;;;;;;-2.44;100.00;66511.78;5002775;28;20049;-83
2022/12/10 01:59:41;;;;;;;153.90;72.05;;;;;;;-2.52;100.00;66503.91;5005371;28;20038;-83
2022/12/10 02:02:21;;;;;;;140.43;65.53;;;;;;;-2.52;100.00;66503.91;5002513;28;20593;-83
2022/12/10 02:04:56;;;;;;;151.57;67.93;;;;;;;;;;5006207;28;20038;-83
2022/12/10 02:07:39;;;;;;;149.88;74.68;;;;;;;-2.51;100.00;66505.03;5003964;28;20073;-82
2022/12/10 02:10:35;;;;;;;162.10;79.93;;;;;;;-2.52;100.00;66503.34;5003211;28;20410;-83
2022/12/10 02:13:21;;;;;;;154.93;74.45;;;;;;;-2.61;100.00;66496.44;5003981;28;20474;-83
2022/12/10 02:16:06;;;;;;;147.00;68.25;;;;;;;-2.66;100.00;66488.22;5004812;28;20137;-83
2022/12/10 02:18:40;;;;;;;148.07;67.07;;;;;;;-2.67;100.00;66489.69;5016913;28;20046;-83
2022/12/10 02:21:16;;;;;;;156.35;73.35;;;;;;;-2.70;100.00;66488.94;5002866;28;20461;-83
2022/12/10 02:23:47;;;;;;;144.55;69.30;;;;;;;-2.72;100.00;66484.09;5005386;28;20053;-82
2022/12/10 02:26:33;;;;;;;143.18;64.65;;;;;;;-2.70;100.00;66483.16;5002423;28;20072;-83
2022/12/10 02:29:12;;;;;;;145.05;67.15;;;;;;;-2.74;100.00;66479.78;5005546;28;20379;-82
2022/12/10 02:31:40;;;;;;;;;;;;;;;-2.79;100.00;66478.84;5005008;28;20057;-82
2022/12/10 02:34:08;;;;;;;143.60;71.40;;;;;;;-2.90;100.00;66463.91;5003750;28;19927;-82
2022/12/10 02:36:38;;;;;;;145.20;68.38;;;;;;;-2.88;100.00;66466.13;5019866;28;20030;-82
2022/12/10 02:39:11;;;;;;;135.07;62.50;;;;;;;-2.88;100.00;66471.34;5001667;28;20136;-82
2022/12/10 02:41:42;;;;;;;150.10;72.60;;;;;;;-2.90;100.00;66463.91;5004389;28;20038;-82
2022/12/10 02:44:11;;;;;;;146.20;67.15;;;;;;;-2.90;100.00;66464.47;5003397;28;20046;-82
2022/12/10 02:46:40;;;;;;;148.55;66.57;;;;;;;-2.93;100.00;66463.13;5001336;28;20038;-82
2022/12/10 02:49:08;;;;;;;161.75;71.47;;;;;;;-2.91;100.00;66460.16;5001179;28;20062;-82
2022/12/10 02:51:33;;;;;;;173.90;79.33;;;;;;;-2.89;100.00;66462.41;4999148;28;20329;-82
2022/12/10 02:54:03;;;;;;;168.52;67.35;;;;;;;-2.90;100.00;66461.31;5000981;28;20030;-82
2022/12/10 02:56:49;;;;;;;306.75;73.75;;;;;;;-2.89;100.00;66462.97;4999267;28;20512;-82
2022/12/10 02:59:32;;;;;;;253.80;92.85;;;;;;;-2.90;100.00;66461.31;5001870;28;20206;-82
2022/12/10 03:02:15;;;;;;;324.55;99.10;;;;;;;-2.92;100.00;66464.25;5003717;28;20050;-82
2022/12/10 03:05:12;;;;;;;281.20;86.90;;;;;;;-2.94;100.00;66459.97;4998217;28;20041;-83
2022/12/10 03:07:52;;;;;;;249.30;80.28;;;;;;;-2.95;100.00;66458.84;4998353;28;20046;-83
2022/12/10 03:10:18;;;;;;;251.45;76.57;;;;;;;-2.96;100.00;66455.69;5031125;28;20087;-83
2022/12/10 03:13:00;;;;;;;255.00;79.45;;;;;;;-2.92;100.00;66461.66;5034049;28;20075;-84
2022/12/10 03:15:29;;;;;;;383.63;83.72;;;;;;;-3.00;100.00;66453.81;5029266;28;20041;-83
2022/12/10 03:17:57;;;;;;;434.70;85.90;;;;;;;-3.04;100.00;66451.94;5027013;28;20448;-83
2022/12/10 03:20:24;;;;;;;355.02;78.22;;;;;;;-3.07;100.00;66443.38;5022134;28;20102;-83
2022/12/10 03:22:50;;;;;;;376.98;78.40;;;;;;;;;;5013348;28;20236;-82
2022/12/10 03:25:22;;;;;;;333.13;78.85;;;;;;;-3.07;100.00;66442.81;5009126;28;20128;-82
2022/12/10 03:27:51;;;;;;;349.83;81.57;;;;;;;-3.07;100.00;66445.97;5023416;28;20075;-82
2022/12/10 03:30:16;;;;;;;438.58;92.18;;;;;;;-3.07;100.00;66443.38;5021593;28;20038;-82
2022/12/10 03:32:44;;;;;;;272.65;67.32;;;;;;;-3.09;100.00;66443.72;5027095;28;20141;-82
2022/12/10 03:35:10;;;;;;;282.10;72.47;;;;;;;-3.14;100.00;66440.72;5025306;28;20529;-82
2022/12/10 03:37:36;;;;;;;249.93;69.22;;;;;;;-3.17;100.00;66437.34;5027512;28;20042;-82
2022/12/10 03:40:04;;;;;;;410.77;82.60;;;;;;;-3.17;100.00;66435.31;5020428;28;20034;-81
2022/12/10 03:42:29;;;;;;;351.85;77.85;;;;;;;-3.24;100.00;66424.88;5020602;28;20041;-81
2022/12/10 03:44:55;;;;;;;479.75;91.45;;;;;;;-3.25;100.00;66423.16;4992841;28;20035;-82
2022/12/10 03:47:20;;;;;;;276.02;68.95;;;;;;;-3.25;100.00;66426.34;4986675;28;20529;-81
2022/12/10 03:49:46;;;;;;;227.50;74.03;;;;;;;-3.27;100.00;66423.53;5001337;28;20524;-82
2022/12/10 03:52:12;;;;;;;176.40;62.70;;;;;;;-3.27;100.00;66420.94;5012253;28;20052;-81
2022/12/10 03:54:38;;;;;;;152.40;65.88;;;;;;;-3.31;100.00;66416.44;5006056;28;20064;-82
2022/12/10 03:57:03;;;;;;;148.90;59.80;;;;;;;-3.34;100.00;66416.25;4991565;28;20070;-82
2022/12/10 03:59:29;;;;;;;145.00;55.95;;;;;;;-3.42;100.00;66409.91;5009846;28;20062;-82
2022/12/10 04:01:54;;;;;;;147.50;60.08;;;;;;;;;;5000595;28;20045;-83
2022/12/10 04:04:19;;;;;;;144.63;58.95;;;;;;;-3.40;100.00;66409.53;5012359;28;20092;-82
2022/12/10 04:06:45;;;;;;;144.90;60.97;;;;;;;-3.41;100.00;66406.38;5011922;28;20042;-83
2022/12/10 04:09:13;;;;;;;146.63;65.95;;;;;;;-3.55;100.00;66392.72;5017342;28;20081;-82
2022/12/10 04:11:38;;;;;;;144.07;59.22;;;;;;;-3.50;100.00;66398.88;5021666;28;20402;-83
2022/12/10 04:16:47;;;;;;;142.07;60.58;;;;;;;-3.51;100.00;66400.38;5015223;28;20052;-81
2022/12/10 04:19:15;;;;;;;135.43;57.90;;;;;;;-3.51;100.00;66395.16;5019710;28;20061;-82
2022/12/10 04:27:25;;;;;;;119.03;49.72;;;;;;;-3.55;100.00;66392.72;5011518;28;20535;-83
2022/12/10 04:29:52;;;;;;;132.75;60.20;;;;;;;-3.54;100.00;66393.84;5015468;28;20042;-82
2022/12/10 04:32:18;;;;;;;123.72;56.53;;;;;;;-3.52;100.00;66396.63;5015724;28;20042;-82
2022/12/10 04:34:43;;;;;;;117.38;58.28;;;;;;;-3.57;100.00;66387.88;5016864;28;20048;-82
2022/12/10 04:37:10;;;;;;;123.95;58.75;;;;;;;-3.67;100.00;66379.84;5014683;28;20038;-82
2022/12/10 04:39:36;;;;;;;119.07;54.67;;;;;;;-3.69;100.00;66375.53;5005348;28;20093;-82
2022/12/10 04:42:02;;;;;;;119.25;54.95;;;;;;;-3.70;100.00;66374.44;5008387;28;20045;-82
2022/12/10 04:44:27;;;;;;;119.93;58.47;;;;;;;-3.72;100.00;66374.78;5008642;28;20046;-83
2022/12/10 04:46:52;;;;;;;121.57;55.63;;;;;;;-3.66;100.00;66383.56;5011198;28;20382;-82
2022/12/10 04:49:18;;;;;;;116.45;54.60;;;;;;;-3.71;100.00;66373.31;5015956;28;20439;-81
2022/12/10 04:51:44;;;;;;;115.47;55.33;;;;;;;-3.73;100.00;66375.72;5014983;28;20062;-81
2022/12/10 04:54:09;;;;;;;123.30;55.10;;;;;;;-3.70;100.00;66373.88;5027420;28;20033;-82
2022/12/10 04:56:35;;;;;;;110.93;54.10;;;;;;;-3.72;100.00;66376.81;5018886;28;21132;-82
2022/12/10 04:59:02;;;;;;;117.38;51.75;;;;;;;-3.70;100.00;66374.44;5019589;28;20098;-82
2022/12/10 05:01:28;;;;;;;111.93;48.65;;;;;;;-3.75;100.00;66374.03;5011151;28;20038;-82
2022/12/10 05:03:53;;;;;;;105.93;53.50;;;;;;;-3.74;100.00;66372.56;5010250;28;20042;-81
2022/12/10 05:06:20;;;;;;;109.88;53.75;;;;;;;-3.73;100.00;66373.13;4992590;28;20414;-82
2022/12/10 05:08:46;;;;;;;104.53;50.95;;;;;;;-3.83;100.00;66359.31;4991458;28;20042;-81
2022/12/10 05:11:18;;;;;;;102.57;46.30;;;;;;;-3.80;100.00;66363.22;5003401;28;20053;-82
2022/12/10 05:13:43;;;;;;;105.25;51.42;;;;;;;;;;4994826;28;20660;-82
2022/12/10 05:16:11;;;;;;;106.47;51.92;;;;;;;-3.77;100.00;66368.63;4991108;28;20042;-81
2022/12/10 05:18:37;;;;;;;103.20;52.38;;;;;;;-3.81;100.00;66366.75;4992671;28;20123;-82
2022/12/10 05:21:05;;;;;;;101.72;49.70;;;;;;;-3.92;100.00;66350.34;5005353;28;20497;-83
2022/12/10 05:23:31;;;;;;;101.47;47.85;;;;;;;-3.89;100.00;66353.13;5024979;28;20065;-82
2022/12/10 05:26:08;;;;;;;103.30;50.47;;;;;;;-3.91;100.00;66354.06;5028544;28;20033;-82
2022/12/10 05:28:42;;;;;;;99.35;50.40;;;;;;;-3.96;100.00;66345.88;4996218;28;20042;-82
2022/12/10 05:31:25;;;;;;;93.28;49.92;;;;;;;-4.06;100.00;66334.66;5012197;28;20129;-82
2022/12/10 05:33:52;;;;;;;101.55;51.10;;;;;;;-4.15;100.00;66325.13;5013456;28;20100;-82
2022/12/10 05:36:19;;;;;;;106.57;50.60;;;;;;;-4.09;100.00;66334.44;5007178;28;20042;-82
2022/12/10 05:38:45;;;;;;;103.38;49.70;;;;;;;-4.07;100.00;66338.19;5012035;28;20099;-83
2022/12/10 05:41:14;;;;;;;100.53;51.03;;;;;;;-4.18;100.00;66326.97;5017797;28;20049;-83
2022/12/10 05:43:40;;;;;;;;;;;;;;;-4.07;100.00;66333.53;5018345;28;20057;-83
2022/12/10 05:46:08;;;;;;;103.75;50.08;;;;;;;-4.10;100.00;66330.19;5015139;28;19957;-82
2022/12/10 05:48:34;;;;;;;98.57;46.17;;;;;;;-4.13;100.00;66326.81;5010717;28;20061;-82
2022/12/10 05:51:04;;;;;;;105.95;52.45;;;;;;;-4.00;100.00;66340.81;5021456;28;20534;-83
2022/12/10 05:53:30;;;;;;;102.20;50.40;;;;;;;-3.97;100.00;66344.75;5036379;28;20068;-83
2022/12/10 05:56:07;;;;;;;95.47;46.53;;;;;;;-3.94;100.00;66347.53;5036320;28;20033;-83
2022/12/10 05:58:33;;;;;;;91.78;47.22;;;;;;;-4.04;100.00;66338.94;4981167;28;20062;-82
2022/12/10 06:00:59;;;;;;;92.05;47.08;;;;;;;-4.03;100.00;66342.66;5035340;28;20652;-83
2022/12/10 06:03:27;;;;;;;93.25;47.28;;;;;;;-4.10;100.00;66330.75;5037535;28;20069;-82
2022/12/10 06:05:53;;;;;;;89.95;46.20;;;;;;;-4.08;100.00;66335.03;5018276;28;20448;-82
2022/12/10 06:08:18;;;;;;;94.93;47.30;;;;;;;-4.06;100.00;66339.28;5037389;28;20042;-82
2022/12/10 06:10:44;;;;;;;82.85;42.45;;;;;;;-4.08;100.00;66337.63;5019485;28;20412;-82
2022/12/10 06:13:10;;;;;;;88.20;43.90;;;;;;;-4.04;100.00;66336.91;5034917;28;20042;-82
2022/12/10 06:15:38;;;;;;;87.40;47.03;;;;;;;-4.17;100.00;66322.91;5035447;28;20144;-83
2022/12/10 06:18:04;;;;;;;88.45;49.05;;;;;;;-4.19;100.00;66322.72;5034560;28;20045;-83
2022/12/10 06:20:29;;;;;;;92.72;48.55;;;;;;;-4.24;100.00;66320.25;5014145;28;20520;-82
2022/12/10 06:22:55;;;;;;;95.13;48.67;;;;;;;-4.16;100.00;66324.03;5006362;28;20038;-83
2022/12/10 06:25:20;;;;;;;87.85;43.35;;;;;;;-4.15;100.00;66327.19;5027216;28;20048;-81
2022/12/10 06:27:45;;;;;;;85.13;43.47;;;;;;;-4.17;100.00;66325.50;5031206;28;20037;-82
2022/12/10 06:30:11;;;;;;;86.40;45.63;;;;;;;-4.27;100.00;66316.34;5011964;28;20056;-82
2022/12/10 06:32:36;;;;;;;86.15;45.42;;;;;;;-4.27;100.00;66316.34;5027899;28;20053;-82
2022/12/10 06:35:03;;;;;;;87.60;44.15;;;;;;;-4.25;100.00;66316.00;5011628;28;20497;-82
2022/12/10 06:37:28;;;;;;;92.55;45.58;;;;;;;-4.25;100.00;66316.53;5029071;28;20041;-81
2022/12/10 06:39:54;;;;;;;87.85;46.00;;;;;;;-4.22;100.00;66319.34;5011698;28;20056;-81
2022/12/10 06:42:20;;;;;;;89.60;46.25;;;;;;;-4.24;100.00;66314.50;5020309;28;20049;-82
2022/12/10 06:44:45;;;;;;;88.82;46.72;;;;;;;-4.24;100.00;66314.50;5029947;28;20696;-82
2022/12/10 06:47:11;;;;;;;89.75;48.40;;;;;;;-4.31;100.00;66312.44;5013310;28;20041;-81
2022/12/10 06:49:36;;;;;;;87.35;49.25;;;;;;;-4.31;100.00;66312.44;5021513;28;20117;-81
2022/12/10 06:52:02;;;;;;;85.88;46.30;;;;;;;-4.35;100.00;66303.28;5030872;28;20045;-81
2022/12/10 06:54:28;;;;;;;87.82;41.40;;;;;;;-4.36;100.00;66304.78;5030029;28;20155;-81
2022/12/10 06:56:53;;;;;;;105.35;48.60;;;;;;;-4.29;100.00;66311.50;5037158;28;20049;-83
2022/12/10 06:59:20;;;;;;;90.20;42.95;;;;;;;-4.38;100.00;66305.13;5033256;28;20057;-82
2022/12/10 07:01:45;;;;;;;88.07;46.15;;;;;;;-4.32;100.00;66309.25;5032783;28;20253;-83
2022/12/10 07:04:11;;;;;;;90.60;47.53;;;;;;;-4.34;100.00;66304.44;5032730;28;20106;-82
2022/12/10 07:06:36;;;;;;;86.18;42.78;;;;;;;-4.31;100.00;66309.81;5030209;28;20555;-83
2022/12/10 07:09:02;;;;;;;89.18;45.25;;;;;;;;;;5007644;28;20053;-81
2022/12/10 07:11:27;;;;;;;92.07;47.28;;;;;;;-4.15;100.00;66327.19;5032008;28;20063;-82
2022/12/10 07:13:53;;;;;;;97.55;45.28;;;;;;;-4.16;100.00;66328.66;5028744;28;20041;-82
2022/12/10 07:16:26;;;;;;;95.00;45.53;;;;;;;-4.16;100.00;66326.06;5030825;28;20101;-82
2022/12/10 07:18:53;;;;;;;93.47;45.78;;;;;;;-4.10;100.00;66335.38;5030214;28;20045;-82
2022/12/10 07:21:20;;;;;;;94.05;46.47;;;;;;;-4.11;100.00;66331.66;5006601;28;20493;-82
2022/12/10 07:23:46;;;;;;;105.35;52.90;;;;;;;-3.94;100.00;66348.09;5016338;28;20057;-82
2022/12/10 07:26:11;;;;;;;105.72;48.63;;;;;;;-3.80;100.00;66363.22;5031625;28;20052;-82
2022/12/10 07:28:36;;;;;;;95.00;47.88;;;;;;;-3.78;100.00;66368.06;5030818;28;20045;-84
2022/12/10 07:31:03;;;;;;;101.85;50.40;;;;;;;-3.86;100.00;66359.66;5027365;28;20048;-85
2022/12/10 07:33:28;;;;;;;104.03;52.40;;;;;;;;;;5031736;28;20061;-84
2022/12/10 07:35:54;;;;;;;96.70;51.80;;;;;;;-3.80;100.00;66365.25;5008321;28;20052;-82
2022/12/10 07:38:19;;;;;;;104.18;52.30;;;;;;;-3.82;100.00;66365.63;5016268;28;20044;-82
2022/12/10 07:40:45;;;;;;;108.00;48.47;;;;;;;-3.70;100.00;66373.88;5030770;28;20100;-83
2022/12/10 07:43:10;;;;;;;111.70;54.20;;;;;;;;;;5028869;28;20050;-83
2022/12/10 07:45:35;;;;;;;120.25;59.30;;;;;;;;;;5025624;28;20050;-83
2022/12/10 07:48:00;;;;;;;111.55;53.08;;;;;;;-3.57;100.00;66388.44;5033951;28;20064;-82
2022/12/10 07:50:26;;;;;;;117.82;55.15;;;;;;;-3.48;100.00;66403.16;5036906;28;20045;-84
2022/12/10 07:52:51;;;;;;;130.38;61.28;;;;;;;-3.38;100.00;66411.22;5027782;28;20038;-82
2022/12/10 07:55:16;;;;;;;122.75;58.08;;;;;;;-3.33;100.00;66414.78;5025376;28;20501;-82
2022/12/10 07:57:42;;;;;;;128.52;59.60;;;;;;;-3.31;100.00;66419.63;5026090;28;20067;-82
2022/12/10 08:00:08;;;;;;;114.72;58.13;;;;;;;-3.31;100.00;66416.44;5026122;28;20063;-85
2022/12/10 08:02:33;;;;;;;133.02;62.17;;;;;;;-3.27;100.00;66426.16;5027082;28;20563;-81
2022/12/10 08:04:59;;;;;;;140.80;66.25;;;;;;;-3.23;100.00;66425.41;5021534;28;20045;-83
2022/12/10 08:07:24;;;;;;;121.18;56.50;;;;;;;-3.18;100.00;66436.78;5013294;28;20041;-83
2022/12/10 08:09:49;;;;;;;131.90;63.00;;;;;;;-3.13;100.00;66441.28;5021040;28;20519;-84
2022/12/10 08:12:15;;;;;;;127.97;63.00;;;;;;;-3.13;100.00;66443.88;5002851;28;20506;-84
2022/12/10 08:14:40;;;;;;;123.45;58.08;;;;;;;-3.12;100.00;66442.97;5022812;28;20049;-84
2022/12/10 08:17:06;;;;;;;122.10;59.67;;;;;;;-3.12;100.00;66440.34;5025061;28;20041;-85
2022/12/10 08:19:31;;;;;;;127.13;57.50;;;;;;;-3.05;100.00;66445.59;5017085;28;20053;-82
2022/12/10 08:21:56;;;;;;;122.45;56.25;;;;;;;-2.98;100.00;66453.44;5027410;28;20100;-84
2022/12/10 08:24:22;;;;;;;127.72;59.22;;;;;;;-2.95;100.00;66456.81;5027064;28;20088;-83
2022/12/10 08:26:47;;;;;;;120.40;57.33;;;;;;;-2.87;100.00;66467.28;5020859;28;20048;-83
2022/12/10 08:29:12;;;;;;;129.40;58.63;;;;;;;-2.82;100.00;66476.03;5027146;28;20041;-84
2022/12/10 08:31:38;;;;;;;129.15;51.13;;;;;;;-2.73;100.00;66486.13;5017531;28;20528;-84
2022/12/10 08:34:04;;;;;;;141.25;61.13;;;;;;;-2.69;100.00;66484.84;5007521;28;20549;-84
2022/12/10 08:36:30;;;;;;;137.45;58.03;;;;;;;-2.60;100.00;66502.19;5007209;28;20050;-84
2022/12/10 08:38:56;;;;;;;138.18;55.30;;;;;;;-2.55;100.00;66505.19;5023526;28;20046;-84
2022/12/10 08:41:22;;;;;;;142.30;63.67;;;;;;;-2.49;100.00;66506.72;5025087;28;20053;-84
2022/12/10 08:43:47;;;;;;;141.27;66.10;;;;;;;;;;5026761;28;20080;-84
2022/12/10 08:46:14;;;;;;;109.95;46.08;;;;;;;-2.37;100.00;66519.63;5014777;28;20046;-84
2022/12/10 08:48:39;;;;;;;144.38;64.53;;;;;;;-2.30;100.00;66528.03;5017076;28;20041;-84
2022/12/10 08:51:06;;;;;;;135.63;58.17;;;;;;;-2.27;100.00;66530.84;5027647;28;20057;-84
2022/12/10 08:53:32;;;;;;;122.55;50.10;;;;;;;-2.23;100.00;66534.78;5025505;28;20038;-83
2022/12/10 08:55:58;;;;;;;130.23;59.05;;;;;;;-2.19;100.00;66539.25;5025163;28;20534;-84
2022/12/10 08:58:23;;;;;;;139.30;55.60;;;;;;;-2.14;100.00;66548.03;5029067;28;20041;-84
2022/12/10 09:00:49;;;;;;;131.15;54.85;;;;;;;-2.09;100.00;66553.63;5031390;28;20037;-85
2022/12/10 09:03:15;;;;;;;124.55;50.55;;;;;;;-2.08;100.00;66554.75;5030392;28;20048;-84
2022/12/10 09:05:41;;;;;;;136.95;56.20;;;;;;;-2.03;100.00;66559.25;5030475;28;20045;-85
2022/12/10 09:08:07;;;;;;;125.93;50.28;;;;;;;-2.06;100.00;66554.41;5030780;28;20041;-84
2022/12/10 09:10:32;;;;;;;142.00;65.55;;;;;;;-2.05;100.00;66555.50;5030490;28;20576;-84
2022/12/10 09:12:58;;;;;;;150.48;67.07;;;;;;;;;;5004422;28;20037;-84
2022/12/10 09:15:23;;;;;;;151.68;68.28;;;;;;;-1.99;100.00;66564.28;5011308;28;20056;-84
2022/12/10 09:17:48;;;;;;;129.10;48.97;;;;;;;-1.98;100.00;66562.28;5030247;28;20065;-84
2022/12/10 09:20:14;;;;;;;109.47;44.25;;;;;;;-1.99;100.00;66561.69;5010051;28;20493;-84
2022/12/10 09:22:39;;;;;;;141.23;52.70;;;;;;;-1.95;100.00;66565.63;5013135;28;20417;-84
2022/12/10 09:25:06;;;;;;;116.43;43.10;;;;;;;-2.00;100.00;66565.22;5031195;28;20120;-84
2022/12/10 09:27:32;;;;;;;128.82;46.05;;;;;;;-2.01;100.00;66559.47;4998700;28;20050;-85
2022/12/10 09:29:58;;;;;;;140.02;53.38;;;;;;;-2.00;100.00;66560.00;4998704;28;20465;-85
2022/12/10 09:32:23;;;;;;;142.68;57.88;;;;;;;;;;5009915;28;20042;-85
2022/12/10 09:34:52;;;;;;;104.07;42.92;;;;;;;-2.04;100.00;66556.09;4999369;28;20038;-84
2022/12/10 09:37:17;;;;;;;105.40;39.63;;;;;;;-2.09;100.00;66553.63;5007861;28;20042;-85
2022/12/10 09:39:43;;;;;;;119.43;49.20;;;;;;;-2.13;100.00;66546.56;4997272;28;20034;-84
2022/12/10 09:42:23;;;;;;;129.85;53.10;;;;;;;-2.18;100.00;66543.53;5008730;28;20049;-84
2022/12/10 09:45:04;;;;;;;130.13;50.60;;;;;;;-2.16;100.00;66542.63;4997544;28;20042;-84
2022/12/10 09:47:36;;;;;;;151.18;58.40;;;;;;;-2.19;100.00;66544.47;5004158;28;20076;-84
2022/12/10 09:50:13;;;;;;;144.25;57.95;;;;;;;-2.13;100.00;66546.56;4999859;28;20514;-84
2022/12/10 09:52:45;;;;;;;121.50;41.00;;;;;;;-2.12;100.00;66550.28;5004918;28;21062;-84
2022/12/10 09:55:15;;;;;;;136.43;52.35;;;;;;;-2.11;100.00;66548.78;5006720;28;20173;-84
2022/12/10 09:57:48;;;;;;;105.45;40.53;;;;;;;-2.14;100.00;66545.41;4989278;28;20158;-84
2022/12/10 10:00:26;;;;;;;141.38;55.10;;;;;;;-2.10;100.00;66549.91;4991808;28;20425;-84
2022/12/10 10:02:58;;;;;;;105.80;40.47;;;;;;;-2.14;100.00;66548.03;4992865;28;20121;-85
2022/12/10 10:05:28;;;;;;;130.13;53.88;;;;;;;-2.13;100.00;66545.97;5004707;28;20046;-85
2022/12/10 10:08:06;;;;;;;108.00;43.67;;;;;;;-2.13;100.00;66546.56;5006466;28;20601;-85
2022/12/10 10:10:36;;;;;;;147.27;55.13;;;;;;;;;;5006315;28;20054;-85
2022/12/10 10:13:08;;;;;;;118.45;47.25;;;;;;;;;;5008392;28;20045;-85
2022/12/10 10:15:35;;;;;;;131.88;55.80;;;;;;;;;;5004837;28;20103;-85
2022/12/10 10:18:08;;;;;;;132.85;52.22;;;;;;;;;;5022443;28;20524;-85
2022/12/10 10:20:35;;;;;;;115.32;41.65;;;;;;;-2.09;100.00;66553.63;5005812;28;20045;-85
2022/12/10 10:23:00;;;;;;;128.40;47.22;;;;;;;;;;5006932;28;20124;-85
2022/12/10 10:25:27;;;;;;;142.00;53.22;;;;;;;-2.08;100.00;66552.16;5004493;28;20624;-85
2022/12/10 10:27:52;;;;;;;142.48;54.63;;;;;;;-2.10;100.00;66555.13;5004877;28;20533;-85
2022/12/10 10:30:20;;;;;;;158.10;59.17;;;;;;;-2.07;100.00;66547.50;5007173;28;20041;-85
2022/12/10 10:32:52;;;;;;;123.00;39.70;;;;;;;-2.07;100.00;66555.91;5008195;28;20046;-86
2022/12/10 10:35:30;;;;;;;162.73;59.60;;;;;;;-2.02;100.00;66557.75;5007899;28;20069;-85
2022/12/10 10:37:59;;;;;;;144.27;51.67;;;;;;;-2.03;100.00;66557.22;5011571;28;20042;-85
2022/12/10 10:40:28;;;;;;;175.80;68.70;;;;;;;-1.98;100.00;66564.88;5009502;28;20113;-86
2022/12/10 10:42:53;;;;;;;;;;;;;;;;;;5010233;28;20049;-85
2022/12/10 10:45:40;;;;;;;164.02;61.47;;;;;;;-2.02;100.00;66557.75;5009655;28;19963;-86
2022/12/10 10:48:11;;;;;;;170.25;63.53;;;;;;;-2.03;100.00;66556.66;5003895;28;20054;-86
2022/12/10 10:50:56;;;;;;;181.60;66.60;;;;;;;;;;5021140;28;20053;-86
2022/12/10 10:53:30;;;;;;;173.98;62.53;;;;;;;-1.99;100.00;66566.91;5010550;28;20018;-87
2022/12/10 10:56:04;;;;;;;139.63;45.60;;;;;;;-1.99;100.00;66561.13;5014764;28;20025;-87
2022/12/10 10:58:30;;;;;;;118.93;36.63;;;;;;;;;;5027501;28;20061;-86
2022/12/10 11:00:59;;;;;;;180.70;62.03;;;;;;;-1.94;100.00;66572.53;5024954;28;20042;-87
2022/12/10 11:03:27;;;;;;;187.90;63.65;;;;;;;-1.89;100.00;66572.91;5010625;28;20046;-86
2022/12/10 11:05:55;;;;;;;183.15;62.42;;;;;;;-1.89;100.00;66572.91;5014589;28;20045;-86
2022/12/10 11:08:23;;;;;;;213.85;78.40;;;;;;;-1.86;100.00;66580.94;5028460;28;20034;-87
2022/12/10 11:11:01;;;;;;;165.35;48.75;;;;;;;-1.85;100.00;66572.19;5017937;28;20162;-87
2022/12/10 11:13:29;;;;;;;193.27;68.10;;;;;;;-1.82;100.00;66582.81;5013553;28;20070;-86
2022/12/10 11:16:08;;;;;;;201.00;64.82;;;;;;;-1.84;100.00;66588.97;5015795;28;20103;-86
2022/12/10 11:18:37;;;;;;;209.57;70.47;;;;;;;-1.76;100.00;66589.00;5006147;28;20054;-85
2022/12/10 11:21:16;;;;;;;193.95;59.88;;;;;;;-1.82;100.00;66582.81;5011193;28;20045;-85
2022/12/10 11:23:46;;;;;;;200.85;66.80;;;;;;;-1.77;100.00;66588.44;4997868;28;20049;-86
2022/12/10 11:26:30;;;;;;;219.18;75.70;;;;;;;-1.71;100.00;66595.16;4999638;28;20089;-85
2022/12/10 11:29:05;;;;;;;217.98;72.55;;;;;;;;;;5004180;28;20414;-86